Time;durP1;ratioP1;P1;durP2;ratioP2;P2;SDS_P1;SDS_P2;PMS_P1;PMS_P2;Temp;Humidity;BMP_temperature;BMP_pressure;BME280_temperature;BME280_humidity;BME280_pressure;Samples;Min_cycle;Max_cycle;Signal;HPM_P1;HPM_P2
2022/10/06 00:00:51;;;;;;;0.55;0.40;;;18.50;60.00;;;;;;5062910;28;20028;-65
2022/10/06 00:03:17;;;;;;;0.40;0.40;;;18.50;60.00;;;;;;5061790;28;20016;-64
2022/10/06 00:05:43;;;;;;;0.40;0.40;;;18.50;60.00;;;;;;5062852;28;20020;-64
2022/10/06 00:08:10;;;;;;;0.50;0.50;;;18.50;60.00;;;;;;5062819;28;20040;-63
2022/10/06 00:10:35;;;;;;;0.68;0.50;;;18.50;60.00;;;;;;5062585;28;20324;-65
2022/10/06 00:13:01;;;;;;;0.40;0.40;;;18.40;59.80;;;;;;5062802;28;20029;-64
2022/10/06 00:15:29;;;;;;;0.30;0.30;;;18.50;60.00;;;;;;5062814;28;20024;-64
2022/10/06 00:17:56;;;;;;;0.55;0.40;;;18.40;59.90;;;;;;5065172;28;20320;-66
2022/10/06 00:20:22;;;;;;;0.45;0.40;;;18.50;60.00;;;;;;5066397;28;20348;-65
2022/10/06 00:22:51;;;;;;;0.50;0.50;;;18.40;59.90;;;;;;5066377;28;20025;-65
2022/10/06 00:25:20;;;;;;;;;;;18.40;59.90;;;;;;5066733;28;20044;-63
2022/10/06 00:27:48;;;;;;;0.82;0.70;;;18.50;60.00;;;;;;5066252;28;19942;-64
2022/10/06 00:30:18;;;;;;;0.67;0.60;;;18.40;59.90;;;;;;5066176;28;20021;-65
2022/10/06 00:33:02;;;;;;;1.08;0.57;;;18.50;60.00;;;;;;5066212;28;20201;-64
2022/10/06 00:35:33;;;;;;;0.40;0.40;;;18.50;59.90;;;;;;5066143;28;20013;-65
2022/10/06 00:38:02;;;;;;;0.40;0.40;;;18.40;59.90;;;;;;5066099;28;20017;-62
2022/10/06 00:40:29;;;;;;;0.40;0.40;;;18.40;59.90;;;;;;5066016;28;20025;-64
2022/10/06 00:42:58;;;;;;;0.40;0.40;;;18.40;60.00;;;;;;5065979;28;20025;-64
2022/10/06 00:45:45;;;;;;;0.50;0.50;;;18.40;60.00;;;;;;5065906;28;20021;-64
2022/10/06 00:48:20;;;;;;;0.40;0.40;;;18.40;59.90;;;;;;5065905;28;20055;-63
2022/10/06 00:50:46;;;;;;;0.35;0.35;;;18.40;59.90;;;;;;5065779;28;20017;-64
2022/10/06 00:53:13;;;;;;;0.40;0.40;;;18.40;60.00;;;;;;5065779;28;20013;-65
2022/10/06 00:55:39;;;;;;;0.38;0.32;;;18.40;60.00;;;;;;5065716;28;20020;-64
2022/10/06 00:58:06;;;;;;;0.32;0.32;;;18.40;60.00;;;;;;5065685;28;20076;-63
2022/10/06 01:00:32;;;;;;;0.40;0.40;;;18.40;60.00;;;;;;5065672;28;20017;-64
2022/10/06 01:03:06;;;;;;;0.30;0.30;;;18.40;60.00;;;;;;5065586;28;20020;-64
2022/10/06 01:05:39;;;;;;;0.30;0.30;;;18.40;60.00;;;;;;5065582;28;20027;-63
2022/10/06 01:08:05;;;;;;;0.30;0.30;;;18.40;60.00;;;;;;5065563;28;20309;-63
2022/10/06 01:10:31;;;;;;;0.32;0.32;;;18.40;60.00;;;;;;5065232;28;20044;-63
2022/10/06 01:12:57;;;;;;;0.90;0.43;;;18.40;60.00;;;;;;5065433;28;20021;-63
2022/10/06 01:15:24;;;;;;;0.35;0.35;;;18.40;60.00;;;;;;5065345;28;20016;-65
2022/10/06 01:18:04;;;;;;;0.40;0.32;;;18.40;60.00;;;;;;5065367;28;20040;-65
2022/10/06 01:20:31;;;;;;;0.95;0.47;;;18.40;60.00;;;;;;5065321;28;20052;-65
2022/10/06 01:23:04;;;;;;;1.08;0.40;;;18.40;60.00;;;;;;5065232;28;20092;-64
2022/10/06 01:25:32;;;;;;;0.50;0.50;;;18.40;60.00;;;;;;5065188;28;20215;-65
2022/10/06 01:27:59;;;;;;;0.35;0.30;;;18.40;60.00;;;;;;5065180;28;20021;-64
2022/10/06 01:30:52;;;;;;;0.28;0.22;;;18.40;60.00;;;;;;5065015;28;20028;-63
2022/10/06 01:33:21;;;;;;;0.38;0.38;;;18.40;60.00;;;;;;5064107;28;20033;-64
2022/10/06 01:35:51;;;;;;;0.47;0.47;;;18.30;59.90;;;;;;5064998;28;20036;-63
2022/10/06 01:38:17;;;;;;;0.38;0.35;;;18.40;60.00;;;;;;5064924;28;20016;-64
2022/10/06 01:40:44;;;;;;;0.47;0.47;;;18.40;60.00;;;;;;5064868;28;20072;-64
2022/10/06 01:43:09;;;;;;;2.50;0.80;;;18.40;60.00;;;;;;5063706;28;20021;-65
2022/10/06 01:45:35;;;;;;;0.50;0.50;;;18.30;59.90;;;;;;5064703;28;20088;-65
2022/10/06 01:48:01;;;;;;;0.50;0.50;;;18.30;59.80;;;;;;5064989;28;20021;-63
2022/10/06 01:50:27;;;;;;;0.47;0.43;;;18.40;60.00;;;;;;5064588;28;20017;-64
2022/10/06 01:52:54;;;;;;;0.50;0.50;;;18.30;59.90;;;;;;5064630;28;20016;-64
2022/10/06 01:55:20;;;;;;;0.43;0.32;;;18.30;60.00;;;;;;5064595;28;20020;-64
2022/10/06 01:57:46;;;;;;;0.50;0.50;;;18.30;60.00;;;;;;5064538;28;20131;-64
2022/10/06 02:00:12;;;;;;;1.08;0.57;;;18.30;60.00;;;;;;5064492;28;20047;-63
2022/10/06 02:02:37;;;;;;;0.70;0.57;;;18.30;60.00;;;;;;5064457;28;20036;-65
2022/10/06 02:05:03;;;;;;;0.40;0.40;;;18.40;60.00;;;;;;5064398;28;20020;-64
2022/10/06 02:07:29;;;;;;;0.75;0.60;;;18.40;60.00;;;;;;5064403;28;20248;-64
2022/10/06 02:09:55;;;;;;;0.30;0.30;;;18.30;60.50;;;;;;5063997;28;20044;-64
2022/10/06 02:12:20;;;;;;;0.52;0.52;;;18.30;60.00;;;;;;5064255;28;20033;-64
2022/10/06 02:14:46;;;;;;;0.30;0.30;;;18.30;59.90;;;;;;5064262;28;20229;-64
2022/10/06 02:17:12;;;;;;;0.45;0.22;;;18.30;60.00;;;;;;5064188;28;20017;-64
2022/10/06 02:19:38;;;;;;;0.50;0.50;;;18.30;59.90;;;;;;5064137;28;20032;-64
2022/10/06 02:22:03;;;;;;;0.63;0.52;;;18.30;59.90;;;;;;5064080;28;20023;-64
2022/10/06 02:24:29;;;;;;;0.63;0.63;;;18.30;59.90;;;;;;5064053;28;20080;-64
2022/10/06 02:26:55;;;;;;;0.40;0.40;;;18.30;60.00;;;;;;5064019;28;20190;-64
2022/10/06 02:29:21;;;;;;;0.60;0.60;;;18.30;60.00;;;;;;5063893;28;20024;-64
2022/10/06 02:31:48;;;;;;;0.40;0.40;;;18.30;59.90;;;;;;5063914;28;20041;-64
2022/10/06 02:34:14;;;;;;;0.60;0.60;;;18.30;60.00;;;;;;5063912;28;20037;-64
2022/10/06 02:36:40;;;;;;;0.40;0.40;;;18.30;59.90;;;;;;5063909;28;20024;-64
2022/10/06 02:39:05;;;;;;;0.30;0.30;;;18.30;59.90;;;;;;5063669;28;20028;-64
2022/10/06 02:41:31;;;;;;;0.45;0.45;;;18.30;60.00;;;;;;5063548;28;20039;-64
2022/10/06 02:43:57;;;;;;;0.90;0.60;;;18.30;60.00;;;;;;5063741;28;20036;-64
2022/10/06 02:46:24;;;;;;;0.30;0.30;;;18.30;59.90;;;;;;5063711;28;20017;-63
2022/10/06 02:48:52;;;;;;;0.40;0.40;;;18.30;60.00;;;;;;5063957;28;20023;-63
2022/10/06 02:51:19;;;;;;;0.28;0.28;;;18.30;60.00;;;;;;5063640;28;20024;-64
2022/10/06 02:53:47;;;;;;;0.45;0.40;;;18.30;60.00;;;;;;5063852;28;20021;-64
2022/10/06 02:56:21;;;;;;;0.25;0.25;;;18.30;60.00;;;;;;5063538;28;20017;-64
2022/10/06 02:58:48;;;;;;;0.50;0.50;;;18.30;60.00;;;;;;5063571;28;20040;-63
2022/10/06 03:01:18;;;;;;;0.50;0.50;;;18.30;60.00;;;;;;5063535;28;20021;-64
2022/10/06 03:03:47;;;;;;;0.40;0.40;;;18.30;60.00;;;;;;5063509;28;20016;-64
2022/10/06 03:06:22;;;;;;;0.30;0.30;;;18.20;59.90;;;;;;5063483;28;20021;-64
2022/10/06 03:08:50;;;;;;;0.43;0.43;;;18.30;60.00;;;;;;5063476;28;20056;-64
2022/10/06 03:11:20;;;;;;;;;;;18.30;60.00;;;;;;5063703;28;20041;-64
2022/10/06 03:13:48;;;;;;;0.70;0.50;;;18.30;60.00;;;;;;5063397;28;20129;-65
2022/10/06 03:16:18;;;;;;;0.77;0.32;;;18.30;60.00;;;;;;5063380;28;20017;-65
2022/10/06 03:18:46;;;;;;;0.35;0.35;;;18.30;59.90;;;;;;5063341;28;20055;-65
2022/10/06 03:21:14;;;;;;;1.08;0.50;;;18.20;59.90;;;;;;5063308;28;20031;-66
2022/10/06 03:23:41;;;;;;;0.40;0.33;;;18.20;59.90;;;;;;5063333;28;20013;-65
2022/10/06 03:26:07;;;;;;;0.47;0.47;;;18.30;60.00;;;;;;5063239;28;20316;-64
2022/10/06 03:28:33;;;;;;;0.63;0.57;;;18.20;60.00;;;;;;5063523;28;20052;-64
2022/10/06 03:31:01;;;;;;;0.57;0.45;;;18.30;60.00;;;;;;5063151;28;20017;-65
2022/10/06 03:33:28;;;;;;;0.45;0.40;;;18.30;60.00;;;;;;5063459;28;20017;-63
2022/10/06 03:36:06;;;;;;;0.90;0.43;;;18.30;60.00;;;;;;5063168;28;20021;-64
2022/10/06 03:38:33;;;;;;;0.40;0.40;;;18.30;60.00;;;;;;5063181;28;20021;-65
2022/10/06 03:41:08;;;;;;;0.90;0.43;;;18.20;60.00;;;;;;5063160;28;20088;-64
2022/10/06 03:43:35;;;;;;;0.38;0.38;;;18.20;60.00;;;;;;5063162;28;20017;-64
2022/10/06 03:46:02;;;;;;;0.95;0.40;;;18.20;60.00;;;;;;5063070;28;20088;-67
2022/10/06 03:48:28;;;;;;;0.85;0.40;;;18.20;60.00;;;;;;5063057;28;20017;-64
2022/10/06 03:50:59;;;;;;;0.73;0.70;;;18.20;60.00;;;;;;5063017;28;20092;-65
2022/10/06 03:53:26;;;;;;;0.40;0.40;;;18.20;60.00;;;;;;5066361;28;20032;-64
2022/10/06 03:56:27;;;;;;;0.63;0.40;;;18.20;60.00;;;;;;5066890;28;20058;-65
2022/10/06 03:59:00;;;;;;;0.40;0.40;;;18.20;60.70;;;;;;5062981;28;20036;-63
2022/10/06 04:01:32;;;;;;;0.45;0.45;;;18.20;60.10;;;;;;5066822;28;20009;-65
2022/10/06 04:03:59;;;;;;;0.40;0.40;;;18.20;60.10;;;;;;5066756;28;20021;-64
2022/10/06 04:06:27;;;;;;;1.23;0.50;;;18.20;60.10;;;;;;5066727;28;20080;-63
2022/10/06 04:08:54;;;;;;;0.40;0.30;;;18.20;60.00;;;;;;5066598;28;20024;-63
2022/10/06 04:11:26;;;;;;;0.40;0.40;;;18.20;60.10;;;;;;5066477;28;20346;-64
2022/10/06 04:14:14;;;;;;;0.30;0.30;;;18.20;60.00;;;;;;5066580;28;20028;-64
2022/10/06 04:16:48;;;;;;;0.60;0.40;;;18.20;60.00;;;;;;5066552;28;20013;-64
2022/10/06 04:19:15;;;;;;;0.30;0.30;;;18.20;60.10;;;;;;5066479;28;20017;-65
2022/10/06 04:21:44;;;;;;;0.40;0.38;;;18.20;60.00;;;;;;5066396;28;20032;-65
2022/10/06 04:24:10;;;;;;;0.60;0.60;;;18.20;60.00;;;;;;5066652;28;20388;-65
2022/10/06 04:26:43;;;;;;;0.30;0.30;;;18.20;60.00;;;;;;5066610;28;20036;-65
2022/10/06 04:29:10;;;;;;;0.40;0.40;;;18.20;60.00;;;;;;5066228;28;20094;-64
2022/10/06 04:31:37;;;;;;;0.45;0.45;;;18.20;60.00;;;;;;5066234;28;20081;-65
2022/10/06 04:34:05;;;;;;;0.40;0.40;;;18.20;60.10;;;;;;5066110;28;20059;-64
2022/10/06 04:36:34;;;;;;;0.20;0.20;;;18.20;60.10;;;;;;5066179;28;20017;-63
2022/10/06 04:39:01;;;;;;;;;;;18.20;60.10;;;;;;5066520;28;20013;-64
2022/10/06 04:41:34;;;;;;;0.43;0.40;;;18.10;60.10;;;;;;5066038;28;19901;-65
2022/10/06 04:44:02;;;;;;;0.40;0.40;;;18.20;60.00;;;;;;5066029;28;20317;-65
2022/10/06 04:46:29;;;;;;;0.50;0.50;;;18.20;60.00;;;;;;5065951;28;20025;-65
2022/10/06 04:48:55;;;;;;;0.70;0.60;;;18.20;60.00;;;;;;5065813;28;20198;-64
2022/10/06 04:51:22;;;;;;;0.55;0.55;;;18.10;59.90;;;;;;5065842;28;20024;-64
2022/10/06 04:53:48;;;;;;;0.50;0.43;;;18.20;60.00;;;;;;5065839;28;20030;-65
2022/10/06 04:56:25;;;;;;;0.30;0.30;;;18.20;60.10;;;;;;5065790;28;20024;-65
2022/10/06 04:58:53;;;;;;;0.30;0.30;;;18.20;60.10;;;;;;5065749;28;20041;-63
2022/10/06 05:01:34;;;;;;;0.40;0.40;;;18.10;60.00;;;;;;5065720;28;20074;-65
2022/10/06 05:04:01;;;;;;;0.50;0.50;;;18.20;60.10;;;;;;5065343;28;20044;-64
2022/10/06 05:06:35;;;;;;;0.28;0.28;;;18.10;60.00;;;;;;5065586;28;20309;-65
2022/10/06 05:09:04;;;;;;;0.43;0.43;;;18.10;60.00;;;;;;5065527;28;20021;-63
2022/10/06 05:11:30;;;;;;;0.38;0.38;;;18.20;60.00;;;;;;5065374;28;20041;-64
2022/10/06 05:13:58;;;;;;;1.05;0.38;;;18.10;60.00;;;;;;5065445;28;20021;-64
2022/10/06 05:16:26;;;;;;;0.57;0.40;;;18.10;60.00;;;;;;5065484;28;20020;-63
2022/10/06 05:18:52;;;;;;;0.43;0.43;;;18.10;60.00;;;;;;5065382;28;20016;-64
2022/10/06 05:21:29;;;;;;;0.38;0.38;;;18.10;60.00;;;;;;5065329;28;20041;-64
2022/10/06 05:23:55;;;;;;;0.50;0.45;;;18.10;59.90;;;;;;5065270;28;20084;-62
2022/10/06 05:26:24;;;;;;;0.40;0.40;;;18.10;59.90;;;;;;5065221;28;20044;-64
2022/10/06 05:28:50;;;;;;;0.70;0.60;;;18.20;60.00;;;;;;5065169;28;20017;-64
2022/10/06 05:31:18;;;;;;;0.70;0.50;;;18.20;59.90;;;;;;5065053;28;20052;-64
2022/10/06 05:33:44;;;;;;;0.40;0.40;;;18.10;60.00;;;;;;5065102;28;20024;-65
2022/10/06 05:36:18;;;;;;;0.45;0.45;;;18.20;59.90;;;;;;5065030;28;20409;-64
2022/10/06 05:38:45;;;;;;;0.40;0.40;;;18.20;60.00;;;;;;5064996;28;20017;-64
2022/10/06 05:41:19;;;;;;;0.38;0.38;;;18.20;60.00;;;;;;5064946;28;20053;-64
2022/10/06 05:43:46;;;;;;;0.47;0.47;;;18.20;59.90;;;;;;5064884;28;20016;-65
2022/10/06 05:46:19;;;;;;;0.43;0.43;;;18.20;59.90;;;;;;5063683;28;20398;-64
2022/10/06 05:48:49;;;;;;;0.50;0.50;;;18.10;59.90;;;;;;5064770;28;20074;-63
2022/10/06 05:51:16;;;;;;;0.55;0.55;;;18.10;59.80;;;;;;5064677;28;20312;-64
2022/10/06 05:53:42;;;;;;;0.40;0.40;;;18.10;59.90;;;;;;5064680;28;20023;-64
2022/10/06 05:56:10;;;;;;;0.47;0.40;;;18.20;59.90;;;;;;5064653;28;20040;-64
2022/10/06 05:58:37;;;;;;;0.50;0.50;;;18.10;59.90;;;;;;5064583;28;20036;-65
2022/10/06 06:01:39;;;;;;;0.43;0.43;;;18.10;59.80;;;;;;5064559;28;20067;-64
2022/10/06 06:04:07;;;;;;;0.50;0.30;;;18.20;59.90;;;;;;5064456;28;20028;-63
2022/10/06 06:06:35;;;;;;;0.38;0.35;;;18.20;59.80;;;;;;5064468;28;20082;-63
2022/10/06 06:09:11;;;;;;;0.50;0.43;;;18.20;59.80;;;;;;5064331;28;20213;-63
2022/10/06 06:11:39;;;;;;;0.50;0.50;;;18.10;59.80;;;;;;5064307;28;20131;-62
2022/10/06 06:14:10;;;;;;;0.55;0.50;;;18.20;59.80;;;;;;5063882;28;20017;-64
2022/10/06 06:16:37;;;;;;;0.43;0.43;;;18.20;59.80;;;;;;5064055;28;20210;-65
2022/10/06 06:19:04;;;;;;;0.40;0.40;;;18.10;59.80;;;;;;5064201;28;20035;-63
2022/10/06 06:21:30;;;;;;;0.30;0.30;;;18.20;59.80;;;;;;5064164;28;20027;-64
2022/10/06 06:23:56;;;;;;;0.40;0.40;;;18.20;59.80;;;;;;5064098;28;20305;-64
2022/10/06 06:26:25;;;;;;;0.60;0.55;;;18.20;59.80;;;;;;5064043;28;20016;-65
2022/10/06 06:28:51;;;;;;;;;;;18.20;59.80;;;;;;5064491;28;20130;-64
2022/10/06 06:31:20;;;;;;;0.52;0.40;;;18.20;59.70;;;;;;5063904;28;19964;-65
2022/10/06 06:33:47;;;;;;;0.50;0.50;;;18.20;59.70;;;;;;5063950;28;20025;-64
2022/10/06 06:36:16;;;;;;;0.43;0.43;;;18.20;59.70;;;;;;5063888;28;20080;-65
2022/10/06 06:38:44;;;;;;;;;;;18.20;59.70;;;;;;5064318;28;20328;-64
2022/10/06 06:41:24;;;;;;;0.50;0.50;;;18.20;59.70;;;;;;5063867;28;19901;-65
2022/10/06 06:43:51;;;;;;;0.43;0.40;;;18.20;59.70;;;;;;5063863;28;20024;-65
2022/10/06 06:46:19;;;;;;;0.40;0.40;;;18.20;59.60;;;;;;5063778;28;20065;-65
2022/10/06 06:48:46;;;;;;;0.50;0.50;;;18.20;59.60;;;;;;5063749;28;20197;-63
2022/10/06 06:51:12;;;;;;;0.60;0.50;;;18.20;59.60;;;;;;5063664;28;20027;-64
2022/10/06 06:53:39;;;;;;;0.40;0.40;;;18.20;59.60;;;;;;5063642;28;20247;-64
2022/10/06 06:56:07;;;;;;;0.50;0.50;;;18.20;59.60;;;;;;5063632;28;20059;-64
2022/10/06 06:58:33;;;;;;;0.38;0.38;;;18.20;59.60;;;;;;5063579;28;20313;-63
2022/10/06 07:01:12;;;;;;;0.40;0.40;;;18.20;59.60;;;;;;5063598;28;20033;-65
2022/10/06 07:03:44;;;;;;;0.40;0.40;;;18.20;59.60;;;;;;5063546;28;20020;-65
2022/10/06 07:06:12;;;;;;;0.60;0.60;;;18.20;59.60;;;;;;5063486;28;20028;-63
2022/10/06 07:08:43;;;;;;;;;;;18.20;59.60;;;;;;5063910;28;20021;-65
2022/10/06 07:11:30;;;;;;;0.60;0.60;;;18.30;59.60;;;;;;5063251;28;19919;-65
2022/10/06 07:14:00;;;;;;;0.50;0.50;;;18.20;59.50;;;;;;5063436;28;20084;-64
2022/10/06 07:27:32;;;;;;;0.47;0.47;;;18.30;59.30;;;;;;5067079;28;20147;-63
2022/10/06 07:29:58;;;;;;;0.60;0.52;;;18.30;59.30;;;;;;5067316;28;20092;-64
2022/10/06 07:32:26;;;;;;;0.40;0.40;;;18.30;59.40;;;;;;5067370;28;20020;-65
2022/10/06 07:34:52;;;;;;;0.50;0.50;;;18.30;59.50;;;;;;5067335;28;20016;-65
2022/10/06 07:37:18;;;;;;;0.50;0.50;;;18.30;59.50;;;;;;5067252;28;20017;-63
2022/10/06 07:39:48;;;;;;;0.52;0.52;;;18.40;59.40;;;;;;5067223;28;20339;-64
2022/10/06 07:42:17;;;;;;;0.70;0.60;;;18.40;59.40;;;;;;5067218;28;20376;-65
2022/10/06 07:47:36;;;;;;;0.57;0.57;;;18.30;59.40;;;;;;5065946;28;20033;-63
2022/10/06 07:50:06;;;;;;;0.75;0.63;;;18.30;59.60;;;;;;5067233;28;20031;-65
2022/10/06 07:52:35;;;;;;;0.43;0.43;;;18.30;59.70;;;;;;5066905;28;20028;-64
2022/10/06 07:55:01;;;;;;;0.40;0.40;;;18.30;59.70;;;;;;5066937;28;20013;-64
2022/10/06 07:57:34;;;;;;;0.73;0.60;;;18.30;59.80;;;;;;5066882;28;20059;-64
2022/10/06 08:00:03;;;;;;;0.47;0.40;;;18.30;59.80;;;;;;5067160;28;20025;-65
2022/10/06 08:02:29;;;;;;;0.40;0.30;;;18.30;59.80;;;;;;5066800;28;20021;-64
2022/10/06 08:04:55;;;;;;;0.65;0.65;;;18.30;59.70;;;;;;5066738;28;20043;-63
2022/10/06 08:07:21;;;;;;;0.50;0.50;;;18.40;59.70;;;;;;5066688;28;20016;-64
2022/10/06 08:09:47;;;;;;;0.40;0.40;;;18.30;59.70;;;;;;5066388;28;20044;-64
2022/10/06 08:15:00;;;;;;;0.68;0.63;;;18.30;59.80;;;;;;5066627;28;20047;-65
2022/10/06 08:17:26;;;;;;;0.52;0.52;;;18.40;59.80;;;;;;5066503;28;20041;-64
2022/10/06 08:19:53;;;;;;;0.43;0.43;;;18.40;59.70;;;;;;5066468;28;20090;-65
2022/10/06 08:22:20;;;;;;;0.40;0.40;;;18.40;59.70;;;;;;5066434;28;20027;-64
2022/10/06 08:24:45;;;;;;;0.45;0.45;;;18.40;59.70;;;;;;5066356;28;20075;-64
2022/10/06 08:27:11;;;;;;;0.60;0.60;;;18.40;59.70;;;;;;5066337;28;20024;-64
2022/10/06 08:29:37;;;;;;;0.55;0.55;;;18.40;59.60;;;;;;5066204;28;20017;-64
2022/10/06 08:32:03;;;;;;;0.63;0.52;;;18.40;59.60;;;;;;5066239;28;20025;-64
2022/10/06 08:34:29;;;;;;;0.43;0.40;;;18.40;59.60;;;;;;5066221;28;20012;-62
2022/10/06 08:36:56;;;;;;;0.40;0.40;;;18.40;59.60;;;;;;5066071;28;20304;-63
2022/10/06 08:39:22;;;;;;;0.70;0.50;;;18.40;59.50;;;;;;5065559;28;20066;-63
2022/10/06 08:41:50;;;;;;;0.35;0.35;;;18.50;59.60;;;;;;5066060;28;20021;-64
2022/10/06 08:44:34;;;;;;;0.57;0.57;;;18.50;59.60;;;;;;5066047;28;20342;-65
2022/10/06 08:47:24;;;;;;;0.77;0.65;;;18.50;59.70;;;;;;5066030;28;20241;-64
2022/10/06 08:49:52;;;;;;;0.50;0.50;;;18.50;59.60;;;;;;5065499;28;20048;-63
2022/10/06 08:52:43;;;;;;;0.52;0.40;;;18.50;59.60;;;;;;5065909;28;20017;-64
2022/10/06 08:55:24;;;;;;;0.40;0.40;;;18.50;59.60;;;;;;5065763;28;20017;-63
2022/10/06 08:58:12;;;;;;;0.40;0.40;;;18.50;59.60;;;;;;5065777;28;20013;-64
2022/10/06 09:00:38;;;;;;;0.60;0.50;;;18.50;59.60;;;;;;5065750;28;20186;-63
2022/10/06 09:03:04;;;;;;;0.55;0.55;;;18.50;59.50;;;;;;5065688;28;20039;-65
2022/10/06 09:05:33;;;;;;;0.63;0.40;;;18.50;59.50;;;;;;5064507;28;20051;-64
2022/10/06 09:08:04;;;;;;;0.40;0.40;;;18.50;59.60;;;;;;5065568;28;20021;-63
2022/10/06 09:10:54;;;;;;;0.45;0.45;;;18.50;59.60;;;;;;5065269;28;20110;-65
2022/10/06 09:13:47;;;;;;;0.38;0.38;;;18.50;59.70;;;;;;5054367;28;20096;-64
2022/10/06 09:16:27;;;;;;;0.50;0.50;;;18.50;60.30;;;;;;5065452;28;20012;-64
2022/10/06 09:19:23;;;;;;;0.40;0.40;;;18.50;59.70;;;;;;5065375;28;20043;-65
2022/10/06 09:21:51;;;;;;;0.60;0.60;;;18.50;59.60;;;;;;5057589;28;20029;-63
2022/10/06 09:24:33;;;;;;;0.30;0.30;;;18.60;60.30;;;;;;5065269;28;20024;-64
2022/10/06 09:26:59;;;;;;;0.40;0.40;;;18.50;59.60;;;;;;5065237;28;20078;-64
2022/10/06 09:29:30;;;;;;;0.50;0.50;;;18.50;59.60;;;;;;5065081;28;20028;-63
2022/10/06 09:31:56;;;;;;;0.35;0.35;;;18.50;59.60;;;;;;5065165;28;20013;-64
2022/10/06 09:34:39;;;;;;;0.57;0.57;;;18.60;59.60;;;;;;5065133;28;20023;-64
2022/10/06 09:37:09;;;;;;;0.50;0.50;;;18.60;59.50;;;;;;5065091;28;20244;-64
2022/10/06 09:39:37;;;;;;;0.63;0.63;;;18.60;59.60;;;;;;5065013;28;20021;-64
2022/10/06 09:42:28;;;;;;;0.38;0.38;;;18.60;59.60;;;;;;5064898;28;20028;-64
2022/10/06 09:45:01;;;;;;;0.30;0.30;;;18.60;59.60;;;;;;5064911;28;20027;-65
2022/10/06 09:47:35;;;;;;;0.80;0.60;;;18.60;59.60;;;;;;5065082;28;20025;-65
2022/10/06 09:50:26;;;;;;;0.60;0.47;;;18.60;59.60;;;;;;5063642;28;20021;-64
2022/10/06 09:53:02;;;;;;;0.70;0.70;;;18.60;59.60;;;;;;5064763;28;20028;-65
2022/10/06 09:55:33;;;;;;;0.57;0.57;;;18.60;59.50;;;;;;5064634;28;20013;-63
2022/10/06 09:58:00;;;;;;;0.45;0.45;;;18.60;59.50;;;;;;5064597;28;20021;-63
2022/10/06 10:00:31;;;;;;;0.40;0.30;;;18.70;59.50;;;;;;5064816;28;20027;-65
2022/10/06 10:03:01;;;;;;;0.50;0.50;;;18.70;59.50;;;;;;5064485;28;20020;-64
2022/10/06 10:05:31;;;;;;;0.40;0.40;;;18.70;59.50;;;;;;5064652;28;20032;-65
2022/10/06 10:08:08;;;;;;;0.60;0.60;;;18.70;60.20;;;;;;5064410;28;20041;-64
2022/10/06 10:10:35;;;;;;;0.60;0.50;;;18.70;59.40;;;;;;5064187;28;20045;-64
2022/10/06 10:13:02;;;;;;;0.68;0.35;;;18.70;59.50;;;;;;5064316;28;20380;-64
2022/10/06 10:15:39;;;;;;;0.50;0.50;;;18.70;59.50;;;;;;5064262;28;20021;-66
2022/10/06 10:18:12;;;;;;;1.08;0.50;;;18.70;59.50;;;;;;5064255;28;20017;-63
2022/10/06 10:20:54;;;;;;;0.60;0.40;;;18.70;59.40;;;;;;5064237;28;20044;-67
2022/10/06 10:23:28;;;;;;;0.90;0.90;;;18.80;59.40;;;;;;5064161;28;20025;-64
2022/10/06 10:26:27;;;;;;;0.63;0.47;;;18.80;59.40;;;;;;5064150;28;20050;-64
2022/10/06 10:29:29;;;;;;;0.47;0.47;;;18.80;59.40;;;;;;5064104;28;20021;-63
2022/10/06 10:32:14;;;;;;;0.85;0.50;;;18.80;59.40;;;;;;5062580;28;20370;-63
2022/10/06 10:35:29;;;;;;;0.40;0.40;;;18.80;59.40;;;;;;5063965;28;20029;-65
2022/10/06 10:38:05;;;;;;;0.50;0.50;;;18.80;59.30;;;;;;5055669;28;20147;-64
2022/10/06 10:40:39;;;;;;;0.55;0.40;;;18.80;59.30;;;;;;5063929;28;20032;-63
2022/10/06 10:43:13;;;;;;;0.40;0.40;;;18.80;59.40;;;;;;5063897;28;20166;-63
2022/10/06 10:45:50;;;;;;;0.47;0.47;;;18.80;59.30;;;;;;5063805;28;20084;-64
2022/10/06 10:48:47;;;;;;;0.30;0.30;;;18.90;59.30;;;;;;5063764;28;20048;-64
2022/10/06 10:51:24;;;;;;;0.52;0.50;;;18.90;59.30;;;;;;5062484;28;20020;-63
2022/10/06 10:54:07;;;;;;;0.73;0.73;;;18.90;59.40;;;;;;5063680;28;20305;-64
2022/10/06 10:56:33;;;;;;;0.50;0.50;;;18.90;59.40;;;;;;5063650;28;20024;-63
2022/10/06 10:59:09;;;;;;;0.40;0.40;;;18.90;59.30;;;;;;5063584;28;20040;-65
2022/10/06 11:01:55;;;;;;;0.40;0.40;;;18.90;59.30;;;;;;5063232;28;20021;-63
2022/10/06 11:04:21;;;;;;;0.43;0.43;;;18.90;59.30;;;;;;5063276;28;20282;-64
2022/10/06 11:07:20;;;;;;;0.70;0.70;;;18.90;59.30;;;;;;5063497;28;20044;-63
2022/10/06 11:10:07;;;;;;;0.40;0.40;;;18.90;59.30;;;;;;5051251;28;20033;-64
2022/10/06 11:12:34;;;;;;;;;;;18.90;59.30;;;;;;5064158;28;20280;-65
2022/10/06 11:15:45;;;;;;;0.60;0.43;;;18.90;59.30;;;;;;5063434;28;20245;-65
2022/10/06 11:18:21;;;;;;;0.43;0.43;;;18.90;59.30;;;;;;5041537;28;20049;-63
2022/10/06 11:21:02;;;;;;;0.40;0.40;;;19.00;59.40;;;;;;5041573;28;20021;-63
2022/10/06 11:23:50;;;;;;;0.38;0.38;;;18.90;59.30;;;;;;5056671;28;20317;-64
2022/10/06 11:26:52;;;;;;;0.35;0.35;;;18.90;59.30;;;;;;5063285;28;20298;-63
2022/10/06 11:29:34;;;;;;;0.47;0.47;;;19.00;59.30;;;;;;5063191;28;20017;-64
2022/10/06 11:32:10;;;;;;;0.30;0.30;;;19.00;59.20;;;;;;5063292;28;20078;-64
2022/10/06 11:34:37;;;;;;;0.40;0.40;;;19.00;59.20;;;;;;5062082;28;20016;-65
2022/10/06 11:37:45;;;;;;;0.60;0.60;;;19.00;59.20;;;;;;5063204;28;20076;-63
2022/10/06 11:40:19;;;;;;;;;;;19.10;59.20;;;;;;5063498;28;20021;-63
2022/10/06 11:43:16;;;;;;;0.68;0.50;;;19.10;59.20;;;;;;5063161;28;19905;-64
2022/10/06 11:46:14;;;;;;;0.40;0.40;;;19.10;59.20;;;;;;5063175;28;20025;-63
2022/10/06 11:48:41;;;;;;;0.40;0.40;;;19.10;59.20;;;;;;5044332;28;20037;-65
2022/10/06 11:51:16;;;;;;;0.40;0.40;;;19.10;59.20;;;;;;5063017;28;20044;-64
2022/10/06 11:53:42;;;;;;;0.32;0.32;;;19.10;59.20;;;;;;5062682;28;20036;-63
2022/10/06 11:56:17;;;;;;;0.50;0.50;;;19.10;59.20;;;;;;5063049;28;20024;-63
2022/10/06 11:58:55;;;;;;;0.50;0.50;;;19.10;59.20;;;;;;5062956;28;20017;-63
2022/10/06 12:01:30;;;;;;;0.43;0.43;;;19.20;59.10;;;;;;5062972;28;20025;-64
2022/10/06 12:04:07;;;;;;;0.40;0.40;;;19.20;59.10;;;;;;5062895;28;20253;-65
2022/10/06 12:07:00;;;;;;;0.40;0.40;;;19.20;59.20;;;;;;5062919;28;20016;-63
2022/10/06 12:09:31;;;;;;;0.40;0.40;;;19.20;59.00;;;;;;5060520;28;20025;-64
2022/10/06 12:12:18;;;;;;;0.30;0.30;;;19.30;58.90;;;;;;5062856;28;20372;-64
2022/10/06 12:15:05;;;;;;;0.40;0.40;;;19.30;58.80;;;;;;5066524;28;20028;-64
2022/10/06 12:17:45;;;;;;;0.47;0.47;;;19.30;58.80;;;;;;5066566;28;20217;-64
2022/10/06 12:20:43;;;;;;;0.50;0.50;;;19.30;58.80;;;;;;5066558;28;20351;-63
2022/10/06 12:23:15;;;;;;;0.40;0.40;;;19.30;58.80;;;;;;5065281;28;20025;-63
2022/10/06 12:25:49;;;;;;;0.43;0.43;;;19.30;59.00;;;;;;5066434;28;20025;-63
2022/10/06 12:28:56;;;;;;;0.45;0.45;;;19.30;59.00;;;;;;5065217;28;20052;-64
2022/10/06 12:31:42;;;;;;;0.60;0.60;;;19.30;59.10;;;;;;5054103;28;20074;-64
2022/10/06 12:34:41;;;;;;;0.40;0.40;;;19.30;59.00;;;;;;5062199;28;20067;-65
2022/10/06 12:37:30;;;;;;;0.50;0.50;;;19.40;59.00;;;;;;5066195;28;20016;-63
2022/10/06 12:40:33;;;;;;;0.35;0.35;;;19.40;58.80;;;;;;5066180;28;20017;-64
2022/10/06 12:45:58;;;;;;;0.82;0.65;;;19.40;59.30;;;;;;5066037;28;20016;-64
2022/10/06 12:48:48;;;;;;;0.47;0.47;;;19.50;58.60;;;;;;5066047;28;20076;-63
2022/10/06 12:51:17;;;;;;;0.40;0.40;;;19.60;58.50;;;;;;5065882;28;20319;-64
2022/10/06 12:54:14;;;;;;;0.50;0.50;;;19.60;58.40;;;;;;5065866;28;20051;-65
2022/10/06 12:56:42;;;;;;;0.85;0.50;;;19.70;58.10;;;;;;5065849;28;20071;-64
2022/10/06 12:59:38;;;;;;;0.40;0.40;;;19.80;58.10;;;;;;5065810;28;20021;-64
2022/10/06 13:02:20;;;;;;;0.50;0.50;;;19.90;57.80;;;;;;5065774;28;20017;-64
2022/10/06 13:04:49;;;;;;;0.50;0.50;;;20.00;57.40;;;;;;5065712;28;20411;-64
2022/10/06 13:07:27;;;;;;;0.60;0.60;;;20.10;57.10;;;;;;5065622;28;20021;-65
2022/10/06 13:10:13;;;;;;;0.50;0.50;;;20.20;57.00;;;;;;5065307;28;20033;-63
2022/10/06 13:12:48;;;;;;;0.57;0.57;;;20.20;57.10;;;;;;5065544;28;20036;-63
2022/10/06 13:15:29;;;;;;;0.88;0.50;;;20.20;57.00;;;;;;5065517;28;20032;-65
2022/10/06 13:18:01;;;;;;;0.52;0.52;;;20.40;56.60;;;;;;5065442;28;20036;-64
2022/10/06 13:20:49;;;;;;;0.45;0.45;;;20.50;56.40;;;;;;5065344;28;20216;-63
2022/10/06 13:23:27;;;;;;;0.77;0.55;;;20.60;56.10;;;;;;5065312;28;20028;-63
2022/10/06 13:26:26;;;;;;;0.40;0.40;;;20.50;56.10;;;;;;5065288;28;20021;-64
2022/10/06 13:28:57;;;;;;;0.35;0.35;;;20.30;56.80;;;;;;5065213;28;20367;-64
2022/10/06 13:31:22;;;;;;;0.50;0.50;;;20.10;57.20;;;;;;5065115;28;20313;-64
2022/10/06 13:33:57;;;;;;;0.60;0.60;;;20.20;57.10;;;;;;5065121;28;20009;-64
2022/10/06 13:36:24;;;;;;;0.38;0.38;;;20.30;56.80;;;;;;5065064;28;20080;-63